Time;durP1;ratioP1;P1;durP2;ratioP2;P2;SDS_P1;SDS_P2;PMS_P1;PMS_P2;Temp;Humidity;BMP_temperature;BMP_pressure;BME280_temperature;BME280_humidity;BME280_pressure;Samples;Min_cycle;Max_cycle;Signal;HPM_P1;HPM_P2
2023/09/20 00:03:54;;;;;;;6.75;2.72;;;;;;;15.21;98.13;100305.94;5099238;56;1138740;-74
2023/09/20 00:09:00;;;;;;;10.00;3.60;;;;;;;15.14;98.38;100309.70;5099643;56;1139085;-73
2023/09/20 00:14:06;;;;;;;9.53;3.30;;;;;;;15.03;98.37;100309.94;5159103;55;1141091;-74
2023/09/20 00:19:11;;;;;;;6.20;3.07;;;;;;;14.95;98.63;100317.88;5098867;56;1138820;-74
2023/09/20 00:24:17;;;;;;;4.77;3.07;;;;;;;14.90;98.83;100317.97;5079536;55;1138844;-73
2023/09/20 00:29:24;;;;;;;5.33;3.07;;;;;;;14.84;99.22;100315.41;5068823;56;1138819;-73
2023/09/20 00:34:31;;;;;;;5.20;2.90;;;;;;;14.82;99.62;100305.92;5014538;56;1138594;-74
2023/09/20 00:39:38;;;;;;;8.13;3.50;;;;;;;14.76;100.00;100314.84;4920160;57;1138887;-74
2023/09/20 00:44:44;;;;;;;8.03;3.13;;;;;;;14.69;100.00;100311.09;5059093;56;1140956;-74
2023/09/20 00:49:49;;;;;;;5.47;2.87;;;;;;;14.62;100.00;100314.03;5098814;56;1140647;-73
2023/09/20 00:54:57;;;;;;;7.73;2.93;;;;;;;14.60;100.00;100316.50;4995848;57;1140941;-74
2023/09/20 01:00:07;;;;;;;7.70;3.50;;;;;;;14.58;100.00;100310.48;5079082;56;1141137;-74
2023/09/20 01:05:12;;;;;;;8.63;3.20;;;;;;;14.52;100.00;100315.05;5098621;57;1140989;-74
2023/09/20 01:10:24;;;;;;;8.97;3.20;;;;;;;14.50;100.00;100318.39;5083367;56;1140847;-73
2023/09/20 01:15:27;;;;;;;8.60;3.80;;;;;;;14.48;100.00;100320.36;5163233;55;1140836;-73
2023/09/20 01:20:37;;;;;;;10.00;3.73;;;;;;;14.48;100.00;100321.20;5185016;55;1140986;-73
2023/09/20 01:25:43;;;;;;;6.63;3.53;;;;;;;14.43;100.00;100310.15;5164036;55;1142962;-74
2023/09/20 01:30:50;;;;;;;8.13;3.27;;;;;;;14.41;100.00;100318.28;5127770;55;1140954;-74
2023/09/20 01:35:58;;;;;;;4.35;3.12;;;;;;;14.36;100.00;100307.20;5181473;55;1141258;-75
2023/09/20 01:41:05;;;;;;;6.60;3.60;;;;;;;14.33;100.00;100302.20;5135790;55;1140958;-74
2023/09/20 01:46:11;;;;;;;4.43;3.37;;;;;;;14.32;100.00;100305.01;5164579;55;1140902;-73
2023/09/20 01:51:16;;;;;;;8.23;3.43;;;;;;;14.32;100.00;100296.53;5164495;55;1140703;-74
2023/09/20 01:56:26;;;;;;;12.33;3.60;;;;;;;14.29;100.00;100295.49;5184666;55;1140860;-74
2023/09/20 02:01:30;;;;;;;9.17;3.73;;;;;;;14.24;100.00;100296.42;5163671;55;1142799;-73
2023/09/20 02:06:35;;;;;;;6.87;3.40;;;;;;;14.25;100.00;100295.44;5094416;55;1140828;-74
2023/09/20 02:11:41;;;;;;;12.67;3.83;;;;;;;14.22;100.00;100302.38;5014797;57;1140834;-74
2023/09/20 02:16:47;;;;;;;9.43;3.77;;;;;;;14.16;100.00;100302.98;4994726;58;1143037;-74
2023/09/20 02:21:53;;;;;;;9.70;3.90;;;;;;;14.15;100.00;100306.62;4999649;56;1140984;-76
2023/09/20 02:26:59;;;;;;;8.08;3.33;;;;;;;14.16;100.00;100308.80;4980777;56;1140943;-74
2023/09/20 02:32:05;;;;;;;10.98;3.84;;;;;;;14.09;100.00;100307.20;5015637;56;1140756;-73
2023/09/20 02:37:10;;;;;;;9.68;2.95;;;;;;;14.06;100.00;100306.16;5007781;57;1142681;-74
2023/09/20 02:42:18;;;;;;;11.07;3.90;;;;;;;14.06;100.00;100310.14;4995716;57;1140741;-73
2023/09/20 02:47:26;;;;;;;10.07;3.53;;;;;;;14.02;100.00;100309.62;4934193;58;1142869;-73
2023/09/20 02:52:34;;;;;;;12.43;3.27;;;;;;;13.98;100.00;100310.89;4996534;57;1142964;-73
2023/09/20 02:57:39;;;;;;;7.40;3.67;;;;;;;13.94;100.00;100303.34;5057717;56;1143206;-73
2023/09/20 03:02:50;;;;;;;12.33;3.50;;;;;;;13.93;100.00;100313.62;5082519;55;1140947;-74
2023/09/20 03:07:57;;;;;;;13.73;3.53;;;;;;;13.85;100.00;100313.05;4929047;57;1143083;-74
2023/09/20 03:13:03;;;;;;;8.77;5.70;;;;;;;13.82;100.00;100320.46;4925232;58;1143066;-73
2023/09/20 03:18:09;;;;;;;6.80;3.50;;;;;;;13.78;100.00;100313.75;4996504;56;1140882;-72
2023/09/20 03:23:15;;;;;;;6.07;3.67;;;;;;;13.71;100.00;100321.48;5014556;57;1140704;-73
2023/09/20 03:28:22;;;;;;;7.63;3.20;;;;;;;13.68;100.00;100306.66;4996538;56;1140841;-74
2023/09/20 03:33:31;;;;;;;14.50;3.93;;;;;;;13.68;100.00;100319.94;4953489;56;1140665;-74
2023/09/20 03:38:36;;;;;;;18.60;3.87;;;;;;;13.66;100.00;100318.41;4935038;58;1143057;-74
2023/09/20 03:43:44;;;;;;;6.50;3.27;;;;;;;13.63;100.00;100320.86;4941922;57;1143312;-73
2023/09/20 03:48:50;;;;;;;6.93;3.73;;;;;;;13.60;100.00;100313.16;4948543;56;1140580;-73
2023/09/20 03:53:56;;;;;;;9.60;3.43;;;;;;;13.59;100.00;100315.99;4935200;58;1140857;-73
2023/09/20 03:59:03;;;;;;;7.20;3.27;;;;;;;13.55;100.00;100319.42;5063308;56;1140843;-74
2023/09/20 04:04:08;;;;;;;5.15;3.60;;;;;;;13.53;100.00;100315.22;5079582;56;1140939;-73
2023/09/20 04:09:14;;;;;;;8.00;3.30;;;;;;;13.49;100.00;100323.95;5099029;56;1140637;-74
2023/09/20 04:14:20;;;;;;;5.93;2.97;;;;;;;13.46;100.00;100330.88;5078547;56;1140729;-74
2023/09/20 04:19:25;;;;;;;12.07;3.40;;;;;;;13.43;100.00;100328.53;5077735;56;1140808;-73
2023/09/20 04:24:32;;;;;;;6.47;3.47;;;;;;;13.40;100.00;100338.11;5098236;56;1142857;-74
2023/09/20 04:29:38;;;;;;;9.50;3.60;;;;;;;13.35;100.00;100339.01;5062729;56;1140968;-73
2023/09/20 04:34:44;;;;;;;7.17;3.70;;;;;;;13.34;100.00;100346.14;4924769;58;1140913;-73
2023/09/20 04:39:50;;;;;;;6.30;3.27;;;;;;;13.33;100.00;100343.13;5031130;57;1140937;-73
2023/09/20 04:44:57;;;;;;;12.97;3.50;;;;;;;13.33;100.00;100344.45;5086835;56;1141232;-75
2023/09/20 04:50:05;;;;;;;12.10;4.78;;;;;;;13.34;100.00;100346.63;5078192;56;1143003;-75
2023/09/20 04:55:11;;;;;;;8.95;3.25;;;;;;;13.32;100.00;100341.45;5100775;56;1142912;-74
2023/09/20 05:00:20;;;;;;;8.23;3.93;;;;;;;13.35;100.00;100347.81;5010948;56;1140932;-74
2023/09/20 05:05:25;;;;;;;4.57;3.40;;;;;;;13.34;100.00;100339.98;4992783;57;1140926;-74
2023/09/20 05:10:32;;;;;;;13.63;3.77;;;;;;;13.27;100.00;100336.23;4998296;56;1140935;-74
2023/09/20 05:15:39;;;;;;;9.27;3.90;;;;;;;13.23;100.00;100332.17;4963076;57;1143128;-73
2023/09/20 05:20:45;;;;;;;11.47;3.50;;;;;;;13.24;100.00;100337.34;4932819;57;1170748;-73
2023/09/20 05:25:54;;;;;;;8.87;3.33;;;;;;;13.29;100.00;100339.59;5119613;56;1143243;-73
2023/09/20 05:31:00;;;;;;;14.50;3.35;;;;;;;13.34;100.00;100346.14;5081995;56;1172406;-74
2023/09/20 05:36:07;;;;;;;13.63;3.57;;;;;;;13.43;100.00;100347.12;5022934;57;1242210;-73
2023/09/20 05:41:13;;;;;;;11.08;3.15;;;;;;;13.51;100.00;100352.56;5073831;56;1143113;-73
2023/09/20 05:46:18;;;;;;;7.63;2.80;;;;;;;13.59;100.00;100355.36;5097813;56;1202880;-73
2023/09/20 05:51:24;;;;;;;5.63;2.80;;;;;;;13.70;100.00;100359.18;5002014;56;1141016;-74
2023/09/20 05:56:30;;;;;;;9.13;3.37;;;;;;;13.81;100.00;100345.37;4996456;56;1140819;-74
2023/09/20 06:01:39;;;;;;;7.33;3.30;;;;;;;13.93;100.00;100341.55;4975194;56;1140771;-73
2023/09/20 06:06:43;;;;;;;11.83;3.63;;;;;;;14.05;100.00;100353.70;4983689;57;1140733;-75
2023/09/20 06:11:50;;;;;;;9.43;2.67;;;;;;;14.20;100.00;100364.22;5024523;56;1142969;-73
2023/09/20 06:17:00;;;;;;;10.27;3.10;;;;;;;14.39;100.00;100366.78;5041271;57;1140869;-74
2023/09/20 06:22:04;;;;;;;6.97;3.17;;;;;;;14.57;100.00;100370.02;5070337;56;1143627;-75
2023/09/20 06:27:09;;;;;;;5.85;2.52;;;;;;;14.71;100.00;100370.84;5153425;55;1140932;-73
2023/09/20 06:32:15;;;;;;;7.88;2.70;;;;;;;14.84;100.00;100368.66;5128573;55;1140994;-74
2023/09/20 06:37:22;;;;;;;3.87;2.17;;;;;;;15.06;100.00;100375.39;4996145;58;1140735;-73
2023/09/20 06:42:31;;;;;;;6.80;2.60;;;;;;;15.29;100.00;100371.27;5043983;56;1140935;-75
2023/09/20 06:47:37;;;;;;;9.47;2.80;;;;;;;15.51;100.00;100382.47;5021325;57;1140939;-74
2023/09/20 06:52:43;;;;;;;11.33;2.93;;;;;;;15.60;100.00;100382.39;5046235;56;1141538;-74
2023/09/20 06:57:51;;;;;;;2.50;1.80;;;;;;;15.68;100.00;100395.80;4967482;56;1244904;-74
2023/09/20 07:02:58;;;;;;;4.08;2.30;;;;;;;15.75;100.00;100393.34;5027293;57;1247628;-75
2023/09/20 07:08:05;;;;;;;10.55;2.50;;;;;;;15.92;100.00;100399.63;5037599;56;1248302;-74
2023/09/20 07:13:11;;;;;;;6.90;2.60;;;;;;;16.16;100.00;100397.14;5005165;57;1249801;-73
2023/09/20 07:18:17;;;;;;;7.80;2.00;;;;;;;16.37;100.00;100392.23;4933369;57;1235654;-74
2023/09/20 07:23:23;;;;;;;5.00;2.20;;;;;;;16.61;100.00;100401.36;4986213;56;1251485;-74
2023/09/20 07:28:31;;;;;;;5.77;2.20;;;;;;;16.76;100.00;100405.97;4995912;56;1252993;-74
2023/09/20 07:33:38;;;;;;;9.03;2.03;;;;;;;16.79;100.00;100398.13;5050545;56;1140965;-74
2023/09/20 07:38:44;;;;;;;3.53;2.20;;;;;;;16.91;100.00;100392.82;5022068;56;1253551;-75
2023/09/20 07:43:51;;;;;;;6.93;2.40;;;;;;;17.11;100.00;100396.86;5023771;56;1245763;-74
2023/09/20 07:49:06;;;;;;;3.37;1.60;;;;;;;17.33;100.00;100398.08;5044464;57;1182130;-74
2023/09/20 07:54:06;;;;;;;5.90;2.10;;;;;;;17.63;100.00;100395.25;5023763;56;1246614;-74
2023/09/20 07:59:13;;;;;;;2.97;1.93;;;;;;;17.87;100.00;100392.58;5021334;57;1140941;-74
2023/09/20 08:04:19;;;;;;;6.60;2.10;;;;;;;18.04;100.00;100401.92;5044176;56;1140740;-73
2023/09/20 08:09:24;;;;;;;3.23;2.13;;;;;;;17.91;100.00;100411.81;5109422;56;1140764;-73
2023/09/20 08:14:30;;;;;;;4.20;1.90;;;;;;;17.86;100.00;100412.34;5026180;56;1141146;-73
2023/09/20 08:19:36;;;;;;;4.43;2.03;;;;;;;18.05;100.00;100396.40;5128197;56;1140841;-74
2023/09/20 09:03:03;;;;;;;2.83;2.08;;;;;;;19.27;98.47;100405.28;5013157;57;1141076;-74
2023/09/20 09:08:10;;;;;;;8.85;3.12;;;;;;;19.28;98.18;100397.57;4976482;57;1139066;-74
2023/09/20 09:13:16;;;;;;;7.70;2.10;;;;;;;19.33;96.02;100399.22;4990863;56;1138983;-73
2023/09/20 09:18:23;;;;;;;6.67;1.80;;;;;;;19.43;96.32;100395.78;5032204;56;1160996;-74
2023/09/20 09:23:44;;;;;;;8.48;2.80;;;;;;;19.48;95.62;100404.14;5078601;56;1138741;-74
2023/09/20 09:28:47;;;;;;;10.68;3.20;;;;;;;19.57;95.37;100404.42;5078308;56;1138627;-69
2023/09/20 09:33:54;;;;;;;5.45;3.00;;;;;;;19.69;95.38;100402.67;5010742;57;1140941;-69
2023/09/20 09:39:10;;;;;;;6.75;2.15;;;;;;;19.70;93.32;100405.18;5085964;56;1203411;-69
2023/09/20 09:44:16;;;;;;;7.22;2.77;;;;;;;19.73;93.27;100403.45;5008655;56;1138957;-68
2023/09/20 09:49:23;;;;;;;5.53;2.42;;;;;;;19.80;93.23;100401.73;5023556;56;1138668;-74
2023/09/20 09:54:32;;;;;;;15.70;3.62;;;;;;;19.90;93.56;100406.83;5028534;56;1138665;-69
2023/09/20 09:59:41;;;;;;;6.55;2.05;;;;;;;20.02;92.65;100392.77;4995913;56;1140626;-66
2023/09/20 10:04:56;;;;;;;6.83;1.70;;;;;;;20.16;94.59;100396.52;5015545;57;1138868;-67
2023/09/20 10:10:13;;;;;;;5.80;1.50;;;;;;;20.29;90.85;100394.02;4996422;56;1138626;-68
2023/09/20 10:15:19;;;;;;;2.30;1.40;;;;;;;20.44;91.87;100395.40;5068973;56;1138802;-69
2023/09/20 10:20:25;;;;;;;4.53;2.27;;;;;;;20.55;90.13;100388.70;5015221;56;1138801;-69
2023/09/20 10:25:36;;;;;;;7.17;1.77;;;;;;;20.72;91.23;100386.14;4992682;57;1138786;-75
2023/09/20 10:31:01;;;;;;;10.08;1.80;;;;;;;20.93;88.50;100384.02;4994836;56;1138449;-76
2023/09/20 10:36:07;;;;;;;4.10;2.15;;;;;;;20.94;89.27;100378.43;5017611;56;1140823;-74
2023/09/20 10:41:14;;;;;;;4.87;1.20;;;;;;;20.98;89.01;100381.58;5040662;57;1138714;-74
2023/09/20 10:46:22;;;;;;;5.47;1.50;;;;;;;21.14;87.20;100381.86;5025905;56;1139013;-69
2023/09/20 10:51:52;;;;;;;4.40;1.50;;;;;;;21.19;86.32;100374.92;5027867;56;1138805;-70
2023/09/20 10:57:03;;;;;;;3.33;1.50;;;;;;;21.10;87.33;100372.50;5125200;56;1138746;-67
2023/09/20 11:02:09;;;;;;;7.64;1.52;;;;;;;21.08;88.75;100371.38;5019094;56;1138849;-70
2023/09/20 11:07:18;;;;;;;3.47;0.93;;;;;;;21.15;88.67;100367.39;4984744;57;1138805;-69
2023/09/20 11:12:23;;;;;;;3.37;1.47;;;;;;;21.34;87.90;100360.07;5044792;56;1138685;-74
2023/09/20 11:17:29;;;;;;;2.65;1.27;;;;;;;21.62;88.46;100365.48;4977936;57;1138970;-75
2023/09/20 11:22:35;;;;;;;1.75;1.25;;;;;;;21.84;87.06;100362.26;4991536;56;1139062;-75
2023/09/20 11:27:40;;;;;;;1.87;0.98;;;;;;;22.05;86.15;100350.92;5128301;56;1138800;-74
2023/09/20 11:32:46;;;;;;;7.12;1.40;;;;;;;22.28;84.78;100345.27;5025061;56;1138806;-76
2023/09/20 11:37:52;;;;;;;3.08;1.00;;;;;;;22.52;84.91;100343.09;5025825;56;1138569;-75
2023/09/20 11:42:58;;;;;;;15.90;2.27;;;;;;;22.63;81.27;100345.20;4982939;57;1138887;-73
2023/09/20 11:48:11;;;;;;;1.92;1.20;;;;;;;22.76;82.63;100344.77;4950002;57;1141051;-75
2023/09/20 11:53:18;;;;;;;1.45;0.80;;;;;;;23.00;83.91;100335.82;4933534;58;1138901;-74
2023/09/20 11:58:24;;;;;;;2.05;1.20;;;;;;;23.17;79.91;100340.31;4962899;57;1138769;-73
2023/09/20 12:03:30;;;;;;;3.87;1.35;;;;;;;23.07;81.28;100331.25;5013896;57;1138812;-73
2023/09/20 12:08:35;;;;;;;2.12;1.30;;;;;;;23.05;80.70;100333.34;5015079;56;1138648;-74
2023/09/20 12:13:45;;;;;;;3.02;1.22;;;;;;;23.15;81.26;100336.47;5034653;57;1138795;-73
2023/09/20 12:18:58;;;;;;;3.00;1.40;;;;;;;23.22;81.60;100337.30;5015415;56;1139031;-73
2023/09/20 12:24:04;;;;;;;4.60;1.00;;;;;;;23.29;79.88;100330.05;5014732;56;1138648;-74
2023/09/20 12:29:10;;;;;;;2.27;0.95;;;;;;;23.44;79.62;100331.20;5021683;56;1138998;-76
2023/09/20 12:34:16;;;;;;;3.70;1.60;;;;;;;23.52;79.38;100320.25;5060236;57;1138870;-74
2023/09/20 12:39:22;;;;;;;5.13;1.10;;;;;;;23.70;80.40;100314.19;5099328;56;1138602;-68
2023/09/20 12:44:39;;;;;;;5.35;1.60;;;;;;;23.82;79.07;100313.36;5108191;56;1138552;-69
2023/09/20 12:49:46;;;;;;;2.95;1.10;;;;;;;23.94;79.22;100312.20;5129363;56;1139036;-69
2023/09/20 12:54:52;;;;;;;2.25;1.10;;;;;;;23.98;77.85;100311.26;5109790;56;1139112;-73
2023/09/20 13:00:00;;;;;;;11.10;1.37;;;;;;;23.81;77.98;100306.82;5109519;56;1138772;-69
2023/09/20 13:05:07;;;;;;;5.28;1.47;;;;;;;23.80;78.58;100304.64;5089682;56;1141020;-70
2023/09/20 13:10:13;;;;;;;2.25;0.93;;;;;;;23.88;80.42;100287.88;5129098;56;1138977;-70
2023/09/20 13:15:20;;;;;;;13.98;1.90;;;;;;;24.04;77.75;100291.48;5109522;56;1138733;-70
2023/09/20 13:20:27;;;;;;;2.02;1.62;;;;;;;24.04;78.54;100292.31;5108039;56;1140986;-72
2023/09/20 13:25:33;;;;;;;1.67;1.10;;;;;;;24.01;78.80;100294.08;5129315;56;1139114;-74
2023/09/20 13:30:40;;;;;;;0.82;0.82;;;;;;;24.00;77.71;100292.94;5109154;56;1139067;-70
2023/09/20 13:35:46;;;;;;;3.35;1.22;;;;;;;24.05;77.40;100284.52;5075045;55;1138827;-67
2023/09/20 13:40:53;;;;;;;2.35;1.00;;;;;;;24.16;78.85;100289.77;5025118;56;1138948;-68
2023/09/20 13:45:59;;;;;;;6.80;1.20;;;;;;;24.35;79.56;100279.45;4946053;57;1138845;-67
2023/09/20 13:51:05;;;;;;;2.04;1.10;;;;;;;24.59;78.89;100277.06;5030028;56;1192589;-68
2023/09/20 13:56:11;;;;;;;1.57;1.00;;;;;;;24.76;75.30;100284.95;5117349;55;1139163;-68
2023/09/20 14:01:18;;;;;;;8.30;1.02;;;;;;;24.73;74.85;100280.00;5097174;56;1138805;-65
2023/09/20 14:06:24;;;;;;;5.20;1.17;;;;;;;24.75;75.85;100271.16;4997880;57;1138954;-66
2023/09/20 14:11:31;;;;;;;4.72;1.05;;;;;;;24.87;76.06;100276.17;5073611;56;1138890;-67
2023/09/20 14:16:41;;;;;;;2.00;1.00;;;;;;;24.84;74.54;100276.59;5015290;57;1138845;-66
2023/09/20 14:21:47;;;;;;;1.92;1.02;;;;;;;24.76;74.63;100272.78;5078209;56;1138529;-69
2023/09/20 14:26:55;;;;;;;1.75;0.75;;;;;;;24.80;75.03;100269.44;5083638;56;1138836;-67
2023/09/20 14:32:00;;;;;;;11.70;1.57;;;;;;;24.94;75.35;100269.38;5078674;56;1139001;-68
2023/09/20 14:37:06;;;;;;;12.00;2.05;;;;;;;25.05;76.64;100269.52;5101005;56;1140958;-73
2023/09/20 14:42:12;;;;;;;5.97;1.12;;;;;;;25.08;74.26;100265.52;5084993;56;1141154;-72
2023/09/20 14:47:18;;;;;;;2.77;1.30;;;;;;;24.96;72.64;100263.23;5001629;57;1138659;-72
2023/09/20 14:52:24;;;;;;;5.75;1.10;;;;;;;24.87;73.45;100255.36;5099867;57;1138902;-72
2023/09/20 14:57:30;;;;;;;4.33;1.00;;;;;;;24.94;75.60;100268.02;5079478;56;1138699;-71
2023/09/20 15:02:36;;;;;;;3.52;1.17;;;;;;;24.95;74.30;100266.45;4924684;57;1138947;-71
2023/09/20 15:07:43;;;;;;;1.45;0.70;;;;;;;25.00;74.71;100267.98;4935679;57;1138927;-71
2023/09/20 15:13:01;;;;;;;7.15;1.87;;;;;;;24.96;73.57;100272.17;4997497;57;1139041;-71
2023/09/20 15:18:05;;;;;;;2.45;0.95;;;;;;;24.85;72.66;100273.67;5099896;55;1138589;-71
2023/09/20 15:23:10;;;;;;;2.62;1.00;;;;;;;24.86;74.07;100271.80;5133512;55;1139011;-70
2023/09/20 15:28:16;;;;;;;2.05;0.90;;;;;;;24.88;73.97;100267.84;5098881;56;1138819;-74
2023/09/20 15:33:22;;;;;;;7.95;1.10;;;;;;;24.81;73.39;100268.39;5076630;56;1138781;-73
2023/09/20 15:38:34;;;;;;;3.90;1.47;;;;;;;24.74;74.39;100267.62;5077519;56;1138764;-73
2023/09/20 15:43:43;;;;;;;2.42;1.10;;;;;;;24.67;74.15;100275.45;5106622;56;1138424;-71
2023/09/20 15:48:50;;;;;;;8.83;2.05;;;;;;;24.65;75.02;100268.07;4995747;57;1138729;-72
2023/09/20 15:53:58;;;;;;;3.27;2.02;;;;;;;24.64;75.10;100267.77;4995511;56;1138744;-71
2023/09/20 15:59:03;;;;;;;24.23;2.40;;;;;;;24.68;76.18;100270.34;4921633;57;1138857;-72
2023/09/20 16:04:09;;;;;;;6.80;2.33;;;;;;;24.80;76.57;100269.95;5011822;57;1140977;-72
2023/09/20 16:09:14;;;;;;;11.80;2.02;;;;;;;24.76;75.49;100270.91;4996358;57;1139111;-72
2023/09/20 16:14:20;;;;;;;4.30;2.40;;;;;;;24.66;75.88;100269.21;5058008;56;1140669;-71
2023/09/20 16:19:26;;;;;;;11.80;2.35;;;;;;;24.54;76.13;100273.12;5015133;57;1138800;-72
2023/09/20 16:24:32;;;;;;;3.47;1.50;;;;;;;24.46;76.41;100269.83;4996042;57;1140882;-72
2023/09/20 16:29:37;;;;;;;5.90;1.10;;;;;;;24.30;76.23;100272.50;4995562;57;1138618;-72
2023/09/20 16:34:43;;;;;;;6.50;1.70;;;;;;;24.12;76.51;100277.23;5099532;56;1138735;-72
2023/09/20 16:39:49;;;;;;;10.15;2.65;;;;;;;23.95;76.85;100266.58;4996274;56;1138806;-73
2023/09/20 16:44:55;;;;;;;11.78;3.00;;;;;;;23.84;77.28;100273.97;4995730;57;1140849;-72
2023/09/20 16:50:00;;;;;;;15.72;3.77;;;;;;;23.75;77.75;100273.38;4967854;56;1140773;-73
2023/09/20 16:55:09;;;;;;;83.12;34.23;;;;;;;23.69;78.38;100278.25;5009058;57;1140920;-72
2023/09/20 17:00:15;;;;;;;21.85;9.78;;;;;;;23.67;79.30;100274.13;4916019;57;1143208;-71
2023/09/20 17:05:20;;;;;;;7.53;2.47;;;;;;;23.55;79.72;100273.91;4936685;58;1141162;-72
2023/09/20 17:10:28;;;;;;;8.98;2.58;;;;;;;23.41;80.22;100268.18;4954999;57;1138895;-72
2023/09/20 17:15:34;;;;;;;11.05;3.33;;;;;;;23.27;80.67;100266.00;5021867;57;1138976;-71
2023/09/20 17:20:39;;;;;;;6.30;3.50;;;;;;;23.12;81.17;100272.95;5034436;56;1140774;-72
2023/09/20 17:25:45;;;;;;;12.07;5.55;;;;;;;23.01;81.61;100268.70;5013734;57;1138865;-72
2023/09/20 17:30:52;;;;;;;16.32;6.72;;;;;;;22.85;82.45;100275.83;5058298;56;1140856;-72
2023/09/20 17:36:04;;;;;;;7.55;4.28;;;;;;;22.68;82.72;100276.17;5076729;56;1140785;-72
2023/09/20 17:41:12;;;;;;;10.75;4.17;;;;;;;22.48;83.14;100279.83;5078408;56;1138570;-73
2023/09/20 17:46:18;;;;;;;6.97;2.77;;;;;;;22.27;83.65;100278.94;5065403;56;1140845;-72
2023/09/20 17:51:24;;;;;;;4.43;2.10;;;;;;;22.23;84.51;100273.63;4995582;56;1138784;-71
2023/09/20 17:56:30;;;;;;;7.17;2.77;;;;;;;22.20;84.61;100270.50;4984287;58;1138862;-71
2023/09/20 18:01:36;;;;;;;9.90;5.75;;;;;;;22.14;84.89;100267.28;5012085;57;1139144;-73
2023/09/20 18:06:42;;;;;;;10.80;4.87;;;;;;;21.99;85.10;100273.63;4997777;57;1138845;-71
2023/09/20 18:11:49;;;;;;;6.28;2.98;;;;;;;21.92;85.68;100273.23;4960338;57;1140884;-72
2023/09/20 18:16:55;;;;;;;8.33;4.42;;;;;;;21.75;86.00;100282.97;5018170;57;1138855;-71
2023/09/20 18:22:01;;;;;;;13.18;4.90;;;;;;;21.70;86.54;100288.10;4995457;57;1138858;-71
2023/09/20 18:27:07;;;;;;;12.73;6.30;;;;;;;21.70;86.94;100294.00;4911794;57;1141256;-71
2023/09/20 18:32:12;;;;;;;16.25;4.75;;;;;;;21.67;86.98;100294.41;4946898;57;1141466;-71
2023/09/20 18:37:19;;;;;;;11.18;5.17;;;;;;;21.65;87.09;100295.13;4999105;56;1141322;-71
2023/09/20 18:42:25;;;;;;;20.85;7.58;;;;;;;21.58;87.53;100296.92;5016874;56;1141255;-70
2023/09/20 18:47:31;;;;;;;22.77;9.75;;;;;;;21.48;87.47;100289.20;5098235;56;1140968;-71
2023/09/20 18:52:36;;;;;;;29.32;10.10;;;;;;;21.32;87.60;100288.13;5053819;56;1140849;-71
2023/09/20 18:57:50;;;;;;;18.02;8.20;;;;;;;21.15;88.12;100292.91;5005703;56;1143009;-71
2023/09/20 19:02:56;;;;;;;19.55;7.92;;;;;;;20.97;88.42;100294.70;5010454;57;1141115;-72
2023/09/20 19:08:02;;;;;;;32.23;6.55;;;;;;;20.86;89.10;100293.88;4980101;57;1140848;-73
2023/09/20 19:13:08;;;;;;;38.60;7.20;;;;;;;20.78;89.75;100296.67;4980896;57;1140884;-72
2023/09/20 19:18:14;;;;;;;21.00;3.20;;;;;;;20.60;89.59;100294.43;5019401;57;1140840;-72
2023/09/20 19:23:20;;;;;;;17.07;2.77;;;;;;;20.40;90.46;100296.04;4983359;56;1141228;-73
2023/09/20 19:28:27;;;;;;;14.03;2.55;;;;;;;20.21;91.45;100294.73;5145020;55;1140832;-72
2023/09/20 19:33:33;;;;;;;10.95;2.10;;;;;;;20.14;92.26;100298.36;5148394;55;1140961;-73
2023/09/20 19:38:45;;;;;;;8.93;2.08;;;;;;;20.10;93.02;100291.69;5078712;56;1140689;-72
2023/09/20 19:43:47;;;;;;;10.75;2.25;;;;;;;20.08;93.61;100287.84;5081780;55;1138803;-73
2023/09/20 19:48:53;;;;;;;6.53;2.20;;;;;;;20.08;94.18;100293.73;5004666;57;1140814;-72
2023/09/20 19:54:00;;;;;;;10.63;3.50;;;;;;;20.05;94.40;100288.21;5007052;56;1138945;-73
2023/09/20 19:59:05;;;;;;;5.55;2.95;;;;;;;19.94;94.21;100283.31;4998360;56;1141235;-73
2023/09/20 20:04:12;;;;;;;9.90;2.40;;;;;;;19.83;94.44;100288.64;5040327;56;1139005;-73
2023/09/20 20:09:18;;;;;;;6.10;2.16;;;;;;;19.76;94.86;100285.53;5040056;56;1139138;-73
2023/09/20 20:14:23;;;;;;;4.30;2.67;;;;;;;19.71;95.17;100282.58;5005897;57;1139164;-73
2023/09/20 20:19:30;;;;;;;6.35;2.92;;;;;;;19.69;95.48;100273.38;5084298;56;1138744;-74
2023/09/20 20:24:41;;;;;;;7.20;3.02;;;;;;;19.65;95.39;100282.29;5087662;56;1138799;-73
2023/09/20 20:29:48;;;;;;;7.22;2.72;;;;;;;19.62;95.33;100272.42;5070186;56;1138976;-73
2023/09/20 20:34:54;;;;;;;10.13;2.95;;;;;;;19.57;95.36;100266.25;5066313;55;1138741;-73
2023/09/20 20:40:02;;;;;;;11.64;3.30;;;;;;;19.56;95.49;100270.46;5082804;56;1140882;-74
2023/09/20 20:45:15;;;;;;;3.65;3.02;;;;;;;19.51;95.40;100265.67;5086765;56;1140877;-73
2023/09/20 20:50:31;;;;;;;8.50;3.54;;;;;;;19.49;95.34;100258.78;5064799;56;1138759;-73
2023/09/20 20:55:37;;;;;;;7.55;2.37;;;;;;;19.35;95.05;100259.08;4968547;57;1138998;-73
2023/09/20 21:00:50;;;;;;;6.33;3.15;;;;;;;19.33;95.31;100259.27;5000990;57;1138820;-73
2023/09/20 21:05:51;;;;;;;5.87;2.20;;;;;;;19.36;95.51;100259.41;5058426;56;1138935;-73
2023/09/20 21:10:59;;;;;;;10.88;2.42;;;;;;;19.35;95.40;100251.04;5056119;56;1138687;-72
2023/09/20 21:16:04;;;;;;;7.85;2.45;;;;;;;19.24;95.20;100253.66;4996279;57;1141033;-72
2023/09/20 21:21:11;;;;;;;8.80;3.02;;;;;;;19.18;95.31;100252.20;5098898;56;1138768;-72
2023/09/20 21:26:18;;;;;;;8.90;2.72;;;;;;;18.98;95.24;100245.15;5090129;56;1138731;-72
2023/09/20 21:31:24;;;;;;;2.90;2.23;;;;;;;18.82;95.78;100246.61;5132817;55;1141513;-73
2023/09/20 21:36:29;;;;;;;7.10;3.02;;;;;;;18.77;96.37;100236.96;5042458;55;1138823;-72
2023/09/20 21:41:35;;;;;;;5.42;2.47;;;;;;;18.74;96.58;100233.30;4915717;57;1138836;-73
2023/09/20 21:46:41;;;;;;;6.95;2.72;;;;;;;18.72;96.84;100229.95;4911618;57;1138676;-72
2023/09/20 21:51:46;;;;;;;9.10;2.92;;;;;;;18.70;97.15;100228.79;5007420;56;1138913;-72
2023/09/20 21:56:52;;;;;;;6.65;3.27;;;;;;;18.67;97.10;100226.46;4996734;57;1138557;-72
2023/09/20 22:01:57;;;;;;;5.58;2.55;;;;;;;18.63;97.05;100227.02;4996063;56;1138726;-72
2023/09/20 22:07:05;;;;;;;9.33;2.85;;;;;;;18.55;97.16;100219.83;4983120;56;1139139;-73
2023/09/20 22:12:10;;;;;;;7.53;2.47;;;;;;;18.48;97.21;100217.04;5015908;57;1138983;-72
2023/09/20 22:17:19;;;;;;;6.72;2.85;;;;;;;18.43;97.36;100216.73;4954992;58;1138693;-74
2023/09/20 22:22:24;;;;;;;3.40;2.40;;;;;;;18.42;97.40;100213.72;5009628;57;1138776;-72
2023/09/20 22:27:29;;;;;;;4.60;2.67;;;;;;;18.46;97.43;100220.39;5098219;56;1138772;-72
2023/09/20 22:32:35;;;;;;;13.45;3.77;;;;;;;18.49;97.31;100220.52;5094339;56;1138840;-73
2023/09/20 22:37:42;;;;;;;5.53;2.37;;;;;;;18.49;97.19;100217.84;5078685;56;1140785;-72
2023/09/20 22:42:51;;;;;;;2.55;2.35;;;;;;;18.47;97.09;100214.03;5098827;56;1138585;-73
2023/09/20 22:47:58;;;;;;;5.12;2.35;;;;;;;18.47;97.05;100211.86;5100465;55;1138800;-73
2023/09/20 22:53:08;;;;;;;7.97;2.77;;;;;;;18.40;96.27;100220.25;5164655;55;1138833;-73
2023/09/20 22:58:20;;;;;;;6.57;2.40;;;;;;;18.16;96.45;100214.55;5170241;55;1138855;-72
2023/09/20 23:03:25;;;;;;;11.73;2.47;;;;;;;18.01;96.89;100198.90;5204708;55;1138811;-73
2023/09/20 23:08:34;;;;;;;5.37;2.72;;;;;;;18.01;97.27;100206.42;5133349;55;1141040;-72
2023/09/20 23:13:39;;;;;;;2.83;2.50;;;;;;;17.99;97.27;100199.58;5099316;56;1138795;-72
2023/09/20 23:18:45;;;;;;;6.87;2.83;;;;;;;17.95;97.41;100195.07;5119453;56;1138758;-72
2023/09/20 23:23:54;;;;;;;6.13;2.70;;;;;;;17.96;97.72;100183.36;5098925;56;1139072;-72
2023/09/20 23:28:59;;;;;;;5.40;2.70;;;;;;;18.03;97.82;100184.31;5170928;55;1139019;-72
2023/09/20 23:34:05;;;;;;;5.03;2.60;;;;;;;18.02;97.41;100188.03;5186090;55;1138754;-72
2023/09/20 23:39:11;;;;;;;5.10;2.77;;;;;;;17.93;96.77;100189.05;5206384;56;1138674;-72
2023/09/20 23:44:17;;;;;;;4.08;2.83;;;;;;;17.83;96.84;100185.27;5188803;55;1139007;-74